sensor_id;sensor_type;location;lat;lon;timestamp;temperature;humidity
21298;DHT22;10808;48.010;11.326;2023-04-07T00:02:05;6.30;86.40
21298;DHT22;10808;48.010;11.326;2023-04-07T00:04:31;6.30;86.10
21298;DHT22;10808;48.010;11.326;2023-04-07T00:06:57;6.20;86.30
21298;DHT22;10808;48.010;11.326;2023-04-07T00:09:23;6.30;86.50
21298;DHT22;10808;48.010;11.326;2023-04-07T00:11:49;6.20;86.40
21298;DHT22;10808;48.010;11.326;2023-04-07T00:14:16;6.30;86.60
21298;DHT22;10808;48.010;11.326;2023-04-07T00:16:42;6.30;86.50
21298;DHT22;10808;48.010;11.326;2023-04-07T00:19:08;6.30;86.40
21298;DHT22;10808;48.010;11.326;2023-04-07T00:21:34;6.30;86.60
21298;DHT22;10808;48.010;11.326;2023-04-07T00:24:00;6.30;86.60
21298;DHT22;10808;48.010;11.326;2023-04-07T00:26:26;6.30;86.60
21298;DHT22;10808;48.010;11.326;2023-04-07T00:28:59;6.30;87.20
21298;DHT22;10808;48.010;11.326;2023-04-07T00:31:26;6.30;87.40
21298;DHT22;10808;48.010;11.326;2023-04-07T00:33:52;6.30;87.10
21298;DHT22;10808;48.010;11.326;2023-04-07T00:36:18;6.30;87.20
21298;DHT22;10808;48.010;11.326;2023-04-07T00:38:44;6.30;87.10
21298;DHT22;10808;48.010;11.326;2023-04-07T00:41:10;6.30;87.10
21298;DHT22;10808;48.010;11.326;2023-04-07T00:43:36;6.30;87.40
21298;DHT22;10808;48.010;11.326;2023-04-07T00:46:02;6.30;87.70
21298;DHT22;10808;48.010;11.326;2023-04-07T00:48:28;6.30;87.70
21298;DHT22;10808;48.010;11.326;2023-04-07T00:50:54;6.40;87.80
21298;DHT22;10808;48.010;11.326;2023-04-07T00:53:20;6.30;87.70
21298;DHT22;10808;48.010;11.326;2023-04-07T00:55:46;6.40;88.20
21298;DHT22;10808;48.010;11.326;2023-04-07T00:58:12;6.40;88.60
21298;DHT22;10808;48.010;11.326;2023-04-07T01:00:48;6.40;88.80
21298;DHT22;10808;48.010;11.326;2023-04-07T01:03:19;6.40;89.30
21298;DHT22;10808;48.010;11.326;2023-04-07T01:06:01;6.40;89.70
21298;DHT22;10808;48.010;11.326;2023-04-07T01:08:37;6.50;90.10
21298;DHT22;10808;48.010;11.326;2023-04-07T01:13:43;6.50;90.30
21298;DHT22;10808;48.010;11.326;2023-04-07T01:16:14;6.50;90.50
21298;DHT22;10808;48.010;11.326;2023-04-07T01:18:43;6.50;90.70
21298;DHT22;10808;48.010;11.326;2023-04-07T01:21:16;6.50;90.90
21298;DHT22;10808;48.010;11.326;2023-04-07T01:24:17;6.50;91.00
21298;DHT22;10808;48.010;11.326;2023-04-07T01:26:48;6.50;91.20
21298;DHT22;10808;48.010;11.326;2023-04-07T01:29:21;6.50;91.30
21298;DHT22;10808;48.010;11.326;2023-04-07T01:31:48;6.60;91.60
21298;DHT22;10808;48.010;11.326;2023-04-07T01:34:16;6.60;91.60
21298;DHT22;10808;48.010;11.326;2023-04-07T01:36:43;6.60;91.90
21298;DHT22;10808;48.010;11.326;2023-04-07T01:39:10;6.60;92.00
21298;DHT22;10808;48.010;11.326;2023-04-07T01:41:37;6.60;92.10
21298;DHT22;10808;48.010;11.326;2023-04-07T01:44:05;6.70;92.40
21298;DHT22;10808;48.010;11.326;2023-04-07T01:46:33;6.70;92.60
21298;DHT22;10808;48.010;11.326;2023-04-07T01:48:59;6.70;92.70
21298;DHT22;10808;48.010;11.326;2023-04-07T01:51:28;6.70;92.90
21298;DHT22;10808;48.010;11.326;2023-04-07T01:53:56;6.70;93.10
21298;DHT22;10808;48.010;11.326;2023-04-07T01:56:22;6.70;93.30
21298;DHT22;10808;48.010;11.326;2023-04-07T01:58:48;6.70;93.60
21298;DHT22;10808;48.010;11.326;2023-04-07T02:01:14;6.70;93.80
21298;DHT22;10808;48.010;11.326;2023-04-07T02:03:51;6.70;93.90
21298;DHT22;10808;48.010;11.326;2023-04-07T02:06:26;6.70;94.10
21298;DHT22;10808;48.010;11.326;2023-04-07T02:08:56;6.60;94.20
21298;DHT22;10808;48.010;11.326;2023-04-07T02:11:24;6.60;94.50
21298;DHT22;10808;48.010;11.326;2023-04-07T02:13:53;6.60;94.80
21298;DHT22;10808;48.010;11.326;2023-04-07T02:16:19;6.60;95.20
21298;DHT22;10808;48.010;11.326;2023-04-07T02:18:47;6.60;95.60
21298;DHT22;10808;48.010;11.326;2023-04-07T02:21:14;6.50;95.90
21298;DHT22;10808;48.010;11.326;2023-04-07T02:23:41;6.50;96.40
21298;DHT22;10808;48.010;11.326;2023-04-07T02:26:07;6.40;96.60
21298;DHT22;10808;48.010;11.326;2023-04-07T02:28:33;6.40;96.90
21298;DHT22;10808;48.010;11.326;2023-04-07T02:30:59;6.40;97.10
21298;DHT22;10808;48.010;11.326;2023-04-07T02:33:25;6.40;97.30
21298;DHT22;10808;48.010;11.326;2023-04-07T02:35:51;6.30;97.50
21298;DHT22;10808;48.010;11.326;2023-04-07T02:38:17;6.30;97.70
21298;DHT22;10808;48.010;11.326;2023-04-07T02:40:43;6.40;97.90
21298;DHT22;10808;48.010;11.326;2023-04-07T02:43:09;6.50;98.00
21298;DHT22;10808;48.010;11.326;2023-04-07T02:45:35;6.50;98.30
21298;DHT22;10808;48.010;11.326;2023-04-07T02:48:01;6.50;98.30
21298;DHT22;10808;48.010;11.326;2023-04-07T02:50:27;6.60;98.60
21298;DHT22;10808;48.010;11.326;2023-04-07T02:52:53;6.60;99.00
21298;DHT22;10808;48.010;11.326;2023-04-07T02:55:19;6.60;99.30
21298;DHT22;10808;48.010;11.326;2023-04-07T02:57:45;6.60;99.60
21298;DHT22;10808;48.010;11.326;2023-04-07T03:00:14;6.70;99.80
21298;DHT22;10808;48.010;11.326;2023-04-07T03:02:40;6.70;99.90
21298;DHT22;10808;48.010;11.326;2023-04-07T03:05:06;6.70;99.90
21298;DHT22;10808;48.010;11.326;2023-04-07T03:07:32;6.70;99.90
21298;DHT22;10808;48.010;11.326;2023-04-07T03:09:58;6.70;99.90
21298;DHT22;10808;48.010;11.326;2023-04-07T03:12:25;6.70;99.90
21298;DHT22;10808;48.010;11.326;2023-04-07T03:14:51;6.70;99.90
21298;DHT22;10808;48.010;11.326;2023-04-07T03:17:17;6.70;99.90
21298;DHT22;10808;48.010;11.326;2023-04-07T03:19:43;6.60;99.90
21298;DHT22;10808;48.010;11.326;2023-04-07T03:22:09;6.60;99.80
21298;DHT22;10808;48.010;11.326;2023-04-07T03:24:35;6.60;99.90
21298;DHT22;10808;48.010;11.326;2023-04-07T03:27:01;6.60;99.90
21298;DHT22;10808;48.010;11.326;2023-04-07T03:29:27;6.60;99.90
21298;DHT22;10808;48.010;11.326;2023-04-07T03:31:53;6.60;99.90
21298;DHT22;10808;48.010;11.326;2023-04-07T03:34:19;6.60;99.90
21298;DHT22;10808;48.010;11.326;2023-04-07T03:36:45;6.60;99.90
21298;DHT22;10808;48.010;11.326;2023-04-07T03:39:11;6.60;99.90
21298;DHT22;10808;48.010;11.326;2023-04-07T03:41:37;6.50;99.90
21298;DHT22;10808;48.010;11.326;2023-04-07T03:44:03;6.50;99.90
21298;DHT22;10808;48.010;11.326;2023-04-07T03:46:30;6.40;99.90
21298;DHT22;10808;48.010;11.326;2023-04-07T03:48:56;6.40;99.90
21298;DHT22;10808;48.010;11.326;2023-04-07T03:51:22;6.40;99.90
21298;DHT22;10808;48.010;11.326;2023-04-07T03:53:48;6.30;99.90
21298;DHT22;10808;48.010;11.326;2023-04-07T03:56:14;6.30;99.90
21298;DHT22;10808;48.010;11.326;2023-04-07T03:58:40;6.30;99.90
21298;DHT22;10808;48.010;11.326;2023-04-07T04:01:07;6.30;99.90
21298;DHT22;10808;48.010;11.326;2023-04-07T04:03:34;6.20;99.90
21298;DHT22;10808;48.010;11.326;2023-04-07T04:06:00;6.20;99.90
21298;DHT22;10808;48.010;11.326;2023-04-07T04:08:26;6.20;99.90
21298;DHT22;10808;48.010;11.326;2023-04-07T04:10:52;6.20;99.90
21298;DHT22;10808;48.010;11.326;2023-04-07T04:13:18;6.20;99.90
21298;DHT22;10808;48.010;11.326;2023-04-07T04:15:44;6.10;99.90
21298;DHT22;10808;48.010;11.326;2023-04-07T04:18:10;6.10;99.90
21298;DHT22;10808;48.010;11.326;2023-04-07T04:20:36;6.00;99.90
21298;DHT22;10808;48.010;11.326;2023-04-07T04:23:02;6.00;99.90
21298;DHT22;10808;48.010;11.326;2023-04-07T04:25:29;6.00;99.90
21298;DHT22;10808;48.010;11.326;2023-04-07T04:27:55;6.00;99.90
21298;DHT22;10808;48.010;11.326;2023-04-07T04:30:21;5.90;99.90
21298;DHT22;10808;48.010;11.326;2023-04-07T04:32:47;5.90;99.90
21298;DHT22;10808;48.010;11.326;2023-04-07T04:35:14;5.90;99.90
21298;DHT22;10808;48.010;11.326;2023-04-07T04:37:40;5.90;99.90
21298;DHT22;10808;48.010;11.326;2023-04-07T04:40:06;5.90;99.90
21298;DHT22;10808;48.010;11.326;2023-04-07T04:42:33;5.90;99.90
21298;DHT22;10808;48.010;11.326;2023-04-07T04:45:00;6.00;99.90
21298;DHT22;10808;48.010;11.326;2023-04-07T04:47:26;6.00;99.90
21298;DHT22;10808;48.010;11.326;2023-04-07T04:49:52;6.00;99.90
21298;DHT22;10808;48.010;11.326;2023-04-07T04:52:18;6.00;99.90
21298;DHT22;10808;48.010;11.326;2023-04-07T04:54:44;6.00;99.90
21298;DHT22;10808;48.010;11.326;2023-04-07T04:57:10;6.00;99.90
21298;DHT22;10808;48.010;11.326;2023-04-07T04:59:36;6.00;99.90
21298;DHT22;10808;48.010;11.326;2023-04-07T05:02:02;6.00;99.90
21298;DHT22;10808;48.010;11.326;2023-04-07T05:04:28;6.00;99.90
21298;DHT22;10808;48.010;11.326;2023-04-07T05:06:54;6.00;99.90
21298;DHT22;10808;48.010;11.326;2023-04-07T05:09:20;6.00;99.90
21298;DHT22;10808;48.010;11.326;2023-04-07T05:11:46;5.90;99.90
21298;DHT22;10808;48.010;11.326;2023-04-07T05:14:12;5.90;99.90
21298;DHT22;10808;48.010;11.326;2023-04-07T05:16:38;5.90;99.90
21298;DHT22;10808;48.010;11.326;2023-04-07T05:19:04;6.00;99.90
21298;DHT22;10808;48.010;11.326;2023-04-07T05:21:31;6.00;99.90
21298;DHT22;10808;48.010;11.326;2023-04-07T05:23:57;6.00;99.90
21298;DHT22;10808;48.010;11.326;2023-04-07T05:26:23;6.00;99.90
21298;DHT22;10808;48.010;11.326;2023-04-07T05:28:49;6.00;99.90
21298;DHT22;10808;48.010;11.326;2023-04-07T05:31:15;6.00;99.90
21298;DHT22;10808;48.010;11.326;2023-04-07T05:33:41;6.00;99.90
21298;DHT22;10808;48.010;11.326;2023-04-07T05:36:07;6.10;99.90
21298;DHT22;10808;48.010;11.326;2023-04-07T05:38:33;6.10;99.90
21298;DHT22;10808;48.010;11.326;2023-04-07T05:40:59;6.10;99.90
21298;DHT22;10808;48.010;11.326;2023-04-07T05:43:25;6.10;99.90
21298;DHT22;10808;48.010;11.326;2023-04-07T05:45:51;6.20;99.90
21298;DHT22;10808;48.010;11.326;2023-04-07T05:48:17;6.20;99.90
21298;DHT22;10808;48.010;11.326;2023-04-07T05:50:43;6.20;99.90
21298;DHT22;10808;48.010;11.326;2023-04-07T05:53:09;6.20;99.90
21298;DHT22;10808;48.010;11.326;2023-04-07T05:55:35;6.30;99.90
21298;DHT22;10808;48.010;11.326;2023-04-07T05:58:01;6.20;99.90
21298;DHT22;10808;48.010;11.326;2023-04-07T06:00:27;6.30;99.90
21298;DHT22;10808;48.010;11.326;2023-04-07T06:02:53;6.30;99.90
21298;DHT22;10808;48.010;11.326;2023-04-07T06:05:19;6.40;99.90
21298;DHT22;10808;48.010;11.326;2023-04-07T06:07:45;6.40;99.90
21298;DHT22;10808;48.010;11.326;2023-04-07T06:10:11;6.40;99.90
21298;DHT22;10808;48.010;11.326;2023-04-07T06:12:37;6.40;99.90
21298;DHT22;10808;48.010;11.326;2023-04-07T06:15:03;6.40;99.90
21298;DHT22;10808;48.010;11.326;2023-04-07T06:17:30;6.50;99.90
21298;DHT22;10808;48.010;11.326;2023-04-07T06:19:56;6.50;99.90
21298;DHT22;10808;48.010;11.326;2023-04-07T06:22:22;6.60;99.90
21298;DHT22;10808;48.010;11.326;2023-04-07T06:24:48;6.60;99.90
21298;DHT22;10808;48.010;11.326;2023-04-07T06:27:14;6.60;99.90
21298;DHT22;10808;48.010;11.326;2023-04-07T06:29:41;6.60;99.90
21298;DHT22;10808;48.010;11.326;2023-04-07T06:32:07;6.60;99.90
21298;DHT22;10808;48.010;11.326;2023-04-07T06:34:33;6.60;99.90
21298;DHT22;10808;48.010;11.326;2023-04-07T06:36:59;6.60;99.90
21298;DHT22;10808;48.010;11.326;2023-04-07T06:39:26;6.60;99.90
21298;DHT22;10808;48.010;11.326;2023-04-07T06:41:52;6.70;99.90
21298;DHT22;10808;48.010;11.326;2023-04-07T06:44:18;6.70;99.90
21298;DHT22;10808;48.010;11.326;2023-04-07T06:46:44;6.80;99.90
21298;DHT22;10808;48.010;11.326;2023-04-07T06:49:13;6.80;99.90
21298;DHT22;10808;48.010;11.326;2023-04-07T06:51:39;6.90;99.90
21298;DHT22;10808;48.010;11.326;2023-04-07T06:54:05;6.90;99.90
21298;DHT22;10808;48.010;11.326;2023-04-07T06:56:32;6.90;99.90
21298;DHT22;10808;48.010;11.326;2023-04-07T06:58:58;6.90;99.90
21298;DHT22;10808;48.010;11.326;2023-04-07T07:01:24;7.00;99.90
21298;DHT22;10808;48.010;11.326;2023-04-07T07:03:50;7.10;99.90
21298;DHT22;10808;48.010;11.326;2023-04-07T07:06:16;7.10;99.90
21298;DHT22;10808;48.010;11.326;2023-04-07T07:08:42;7.10;99.90
21298;DHT22;10808;48.010;11.326;2023-04-07T07:11:08;7.20;99.90
21298;DHT22;10808;48.010;11.326;2023-04-07T07:13:34;7.30;99.90
21298;DHT22;10808;48.010;11.326;2023-04-07T07:16:00;7.30;99.90
21298;DHT22;10808;48.010;11.326;2023-04-07T07:18:26;7.30;99.90
21298;DHT22;10808;48.010;11.326;2023-04-07T07:20:52;7.30;99.90
21298;DHT22;10808;48.010;11.326;2023-04-07T07:23:18;7.40;99.90
21298;DHT22;10808;48.010;11.326;2023-04-07T07:25:44;7.40;99.90
21298;DHT22;10808;48.010;11.326;2023-04-07T07:28:10;7.50;99.90
21298;DHT22;10808;48.010;11.326;2023-04-07T07:30:38;7.50;99.90
21298;DHT22;10808;48.010;11.326;2023-04-07T07:33:05;7.60;99.90
21298;DHT22;10808;48.010;11.326;2023-04-07T07:35:31;7.60;99.90
21298;DHT22;10808;48.010;11.326;2023-04-07T07:37:57;7.70;99.90
21298;DHT22;10808;48.010;11.326;2023-04-07T07:40:23;7.80;99.90
21298;DHT22;10808;48.010;11.326;2023-04-07T07:42:49;7.80;99.90
21298;DHT22;10808;48.010;11.326;2023-04-07T07:45:15;7.90;99.90
21298;DHT22;10808;48.010;11.326;2023-04-07T07:47:44;8.00;99.90
21298;DHT22;10808;48.010;11.326;2023-04-07T07:50:10;8.10;99.90
21298;DHT22;10808;48.010;11.326;2023-04-07T07:52:36;8.20;99.90
21298;DHT22;10808;48.010;11.326;2023-04-07T07:55:02;8.20;99.90
21298;DHT22;10808;48.010;11.326;2023-04-07T07:57:34;8.30;99.90
21298;DHT22;10808;48.010;11.326;2023-04-07T08:00:06;8.30;99.90
21298;DHT22;10808;48.010;11.326;2023-04-07T08:02:49;8.40;99.90
21298;DHT22;10808;48.010;11.326;2023-04-07T08:05:15;8.60;99.90
21298;DHT22;10808;48.010;11.326;2023-04-07T08:07:41;8.70;99.90
21298;DHT22;10808;48.010;11.326;2023-04-07T08:10:15;8.90;99.90
21298;DHT22;10808;48.010;11.326;2023-04-07T08:12:45;9.10;99.90
21298;DHT22;10808;48.010;11.326;2023-04-07T08:15:11;9.30;99.90
21298;DHT22;10808;48.010;11.326;2023-04-07T08:17:37;9.50;99.90
21298;DHT22;10808;48.010;11.326;2023-04-07T08:20:07;9.60;99.60
21298;DHT22;10808;48.010;11.326;2023-04-07T08:22:33;9.70;98.80
21298;DHT22;10808;48.010;11.326;2023-04-07T08:25:04;9.90;99.10
21298;DHT22;10808;48.010;11.326;2023-04-07T08:27:48;10.00;97.90
21298;DHT22;10808;48.010;11.326;2023-04-07T08:30:33;10.30;98.30
21298;DHT22;10808;48.010;11.326;2023-04-07T08:32:59;10.50;97.30
21298;DHT22;10808;48.010;11.326;2023-04-07T08:35:25;10.70;96.60
21298;DHT22;10808;48.010;11.326;2023-04-07T08:37:51;10.90;96.90
21298;DHT22;10808;48.010;11.326;2023-04-07T08:40:18;11.10;96.50
21298;DHT22;10808;48.010;11.326;2023-04-07T08:42:48;11.30;97.10
21298;DHT22;10808;48.010;11.326;2023-04-07T08:45:16;11.60;96.20
21298;DHT22;10808;48.010;11.326;2023-04-07T08:47:42;11.80;95.50
21298;DHT22;10808;48.010;11.326;2023-04-07T08:50:10;12.00;95.40
21298;DHT22;10808;48.010;11.326;2023-04-07T08:52:49;12.20;94.60
21298;DHT22;10808;48.010;11.326;2023-04-07T08:55:17;12.50;94.50
21298;DHT22;10808;48.010;11.326;2023-04-07T08:57:45;12.80;94.60
21298;DHT22;10808;48.010;11.326;2023-04-07T09:00:12;13.00;94.10
21298;DHT22;10808;48.010;11.326;2023-04-07T09:02:40;13.10;92.40
21298;DHT22;10808;48.010;11.326;2023-04-07T09:05:16;13.10;92.40
21298;DHT22;10808;48.010;11.326;2023-04-07T09:07:42;13.30;92.80
21298;DHT22;10808;48.010;11.326;2023-04-07T09:10:09;13.50;92.70
21298;DHT22;10808;48.010;11.326;2023-04-07T09:12:35;13.80;92.40
21298;DHT22;10808;48.010;11.326;2023-04-07T09:15:01;14.10;91.60
21298;DHT22;10808;48.010;11.326;2023-04-07T09:17:33;14.30;91.30
21298;DHT22;10808;48.010;11.326;2023-04-07T09:20:02;14.60;91.50
21298;DHT22;10808;48.010;11.326;2023-04-07T09:22:48;14.80;90.20
21298;DHT22;10808;48.010;11.326;2023-04-07T09:25:17;15.00;89.90
21298;DHT22;10808;48.010;11.326;2023-04-07T09:28:01;15.20;89.50
21298;DHT22;10808;48.010;11.326;2023-04-07T09:30:33;15.40;87.10
21298;DHT22;10808;48.010;11.326;2023-04-07T09:33:00;15.30;87.70
21298;DHT22;10808;48.010;11.326;2023-04-07T09:35:26;15.30;87.00
21298;DHT22;10808;48.010;11.326;2023-04-07T09:38:22;15.20;86.40
21298;DHT22;10808;48.010;11.326;2023-04-07T09:41:11;15.70;86.90
21298;DHT22;10808;48.010;11.326;2023-04-07T09:43:45;16.00;86.20
21298;DHT22;10808;48.010;11.326;2023-04-07T09:46:19;16.30;84.70
21298;DHT22;10808;48.010;11.326;2023-04-07T09:48:45;16.50;83.70
21298;DHT22;10808;48.010;11.326;2023-04-07T09:51:13;16.50;83.10
21298;DHT22;10808;48.010;11.326;2023-04-07T09:53:47;16.30;83.00
21298;DHT22;10808;48.010;11.326;2023-04-07T09:56:29;16.30;83.40
21298;DHT22;10808;48.010;11.326;2023-04-07T09:58:55;16.60;81.60
21298;DHT22;10808;48.010;11.326;2023-04-07T10:01:22;16.70;81.60
21298;DHT22;10808;48.010;11.326;2023-04-07T10:03:48;16.80;81.50
21298;DHT22;10808;48.010;11.326;2023-04-07T10:06:15;17.00;84.20
21298;DHT22;10808;48.010;11.326;2023-04-07T10:08:42;17.50;82.50
21298;DHT22;10808;48.010;11.326;2023-04-07T10:11:10;17.60;80.30
21298;DHT22;10808;48.010;11.326;2023-04-07T10:13:38;17.90;82.00
21298;DHT22;10808;48.010;11.326;2023-04-07T10:16:10;18.20;81.60
21298;DHT22;10808;48.010;11.326;2023-04-07T10:18:37;18.00;78.80
21298;DHT22;10808;48.010;11.326;2023-04-07T10:21:06;17.70;78.50
21298;DHT22;10808;48.010;11.326;2023-04-07T10:23:45;17.60;83.40
21298;DHT22;10808;48.010;11.326;2023-04-07T10:26:16;17.60;78.70
21298;DHT22;10808;48.010;11.326;2023-04-07T10:28:46;17.10;78.10
21298;DHT22;10808;48.010;11.326;2023-04-07T10:31:13;17.00;79.10
21298;DHT22;10808;48.010;11.326;2023-04-07T10:33:51;16.90;79.90
21298;DHT22;10808;48.010;11.326;2023-04-07T10:36:19;17.20;81.50
21298;DHT22;10808;48.010;11.326;2023-04-07T10:41:39;17.80;80.60
21298;DHT22;10808;48.010;11.326;2023-04-07T10:44:08;17.90;81.90
21298;DHT22;10808;48.010;11.326;2023-04-07T10:49:14;18.30;76.10
21298;DHT22;10808;48.010;11.326;2023-04-07T10:51:41;18.10;76.00
21298;DHT22;10808;48.010;11.326;2023-04-07T10:54:19;18.20;76.60
21298;DHT22;10808;48.010;11.326;2023-04-07T10:57:13;18.40;78.70
21298;DHT22;10808;48.010;11.326;2023-04-07T11:02:39;18.60;74.70
21298;DHT22;10808;48.010;11.326;2023-04-07T11:05:06;18.50;73.80
21298;DHT22;10808;48.010;11.326;2023-04-07T11:07:47;18.00;74.10
21298;DHT22;10808;48.010;11.326;2023-04-07T11:10:15;18.10;76.70
21298;DHT22;10808;48.010;11.326;2023-04-07T11:37:23;19.30;76.30
21298;DHT22;10808;48.010;11.326;2023-04-07T11:39:59;19.30;75.30
21298;DHT22;10808;48.010;11.326;2023-04-07T11:42:32;19.20;73.60
21298;DHT22;10808;48.010;11.326;2023-04-07T11:44:59;18.90;72.30
21298;DHT22;10808;48.010;11.326;2023-04-07T11:47:35;18.60;72.60
21298;DHT22;10808;48.010;11.326;2023-04-07T11:50:02;18.60;74.20
21298;DHT22;10808;48.010;11.326;2023-04-07T11:52:28;18.50;73.50
21298;DHT22;10808;48.010;11.326;2023-04-07T11:54:54;18.70;75.10
21298;DHT22;10808;48.010;11.326;2023-04-07T11:57:27;18.80;73.20
21298;DHT22;10808;48.010;11.326;2023-04-07T12:00:07;18.60;72.30
21298;DHT22;10808;48.010;11.326;2023-04-07T12:02:33;18.30;74.30
21298;DHT22;10808;48.010;11.326;2023-04-07T12:05:00;18.50;75.10
21298;DHT22;10808;48.010;11.326;2023-04-07T12:07:26;18.50;71.50
21298;DHT22;10808;48.010;11.326;2023-04-07T12:09:54;18.00;72.30
21298;DHT22;10808;48.010;11.326;2023-04-07T12:12:28;17.70;72.30
21298;DHT22;10808;48.010;11.326;2023-04-07T12:14:55;17.50;72.90
21298;DHT22;10808;48.010;11.326;2023-04-07T12:17:22;17.40;73.90
21298;DHT22;10808;48.010;11.326;2023-04-07T12:19:48;17.40;73.30
21298;DHT22;10808;48.010;11.326;2023-04-07T12:22:14;17.40;73.90
21298;DHT22;10808;48.010;11.326;2023-04-07T12:24:41;17.60;74.80
21298;DHT22;10808;48.010;11.326;2023-04-07T12:27:07;18.00;75.40
21298;DHT22;10808;48.010;11.326;2023-04-07T12:29:33;18.30;76.20
21298;DHT22;10808;48.010;11.326;2023-04-07T12:31:59;18.50;74.10
21298;DHT22;10808;48.010;11.326;2023-04-07T12:34:25;18.60;74.00
21298;DHT22;10808;48.010;11.326;2023-04-07T12:36:52;18.80;75.70
21298;DHT22;10808;48.010;11.326;2023-04-07T12:39:18;19.00;74.70
21298;DHT22;10808;48.010;11.326;2023-04-07T12:41:44;19.10;75.40
21298;DHT22;10808;48.010;11.326;2023-04-07T12:44:12;19.20;72.90
21298;DHT22;10808;48.010;11.326;2023-04-07T12:46:38;19.20;73.20
21298;DHT22;10808;48.010;11.326;2023-04-07T12:49:04;19.30;74.00
21298;DHT22;10808;48.010;11.326;2023-04-07T12:51:30;19.20;71.50
21298;DHT22;10808;48.010;11.326;2023-04-07T12:53:58;18.70;70.80
21298;DHT22;10808;48.010;11.326;2023-04-07T12:56:32;18.70;71.00
21298;DHT22;10808;48.010;11.326;2023-04-07T12:58:58;18.60;73.80
21298;DHT22;10808;48.010;11.326;2023-04-07T13:01:24;18.30;71.80
21298;DHT22;10808;48.010;11.326;2023-04-07T13:03:50;18.20;71.70
21298;DHT22;10808;48.010;11.326;2023-04-07T13:06:17;17.90;72.10
21298;DHT22;10808;48.010;11.326;2023-04-07T13:08:43;17.80;73.60
21298;DHT22;10808;48.010;11.326;2023-04-07T13:11:10;17.70;73.20
21298;DHT22;10808;48.010;11.326;2023-04-07T13:13:35;17.70;73.20
21298;DHT22;10808;48.010;11.326;2023-04-07T13:16:02;17.70;74.40
21298;DHT22;10808;48.010;11.326;2023-04-07T13:18:28;17.40;73.20
21298;DHT22;10808;48.010;11.326;2023-04-07T13:20:54;17.30;76.70
21298;DHT22;10808;48.010;11.326;2023-04-07T13:23:20;17.30;76.50
21298;DHT22;10808;48.010;11.326;2023-04-07T13:25:46;17.40;76.00
21298;DHT22;10808;48.010;11.326;2023-04-07T13:28:12;17.30;74.40
21298;DHT22;10808;48.010;11.326;2023-04-07T13:30:38;16.80;74.20
21298;DHT22;10808;48.010;11.326;2023-04-07T13:33:04;16.60;76.20
21298;DHT22;10808;48.010;11.326;2023-04-07T13:35:30;16.70;77.50
21298;DHT22;10808;48.010;11.326;2023-04-07T13:38:01;16.80;77.70
21298;DHT22;10808;48.010;11.326;2023-04-07T13:40:28;16.80;76.60
21298;DHT22;10808;48.010;11.326;2023-04-07T13:42:54;16.70;76.70
21298;DHT22;10808;48.010;11.326;2023-04-07T13:45:21;16.80;76.20
21298;DHT22;10808;48.010;11.326;2023-04-07T13:47:47;16.60;77.50
21298;DHT22;10808;48.010;11.326;2023-04-07T13:50:13;16.60;76.40
21298;DHT22;10808;48.010;11.326;2023-04-07T13:52:40;16.50;76.00
21298;DHT22;10808;48.010;11.326;2023-04-07T13:55:06;16.20;76.60
21298;DHT22;10808;48.010;11.326;2023-04-07T13:57:33;16.00;76.80
21298;DHT22;10808;48.010;11.326;2023-04-07T13:59:59;15.70;76.40
21298;DHT22;10808;48.010;11.326;2023-04-07T14:02:25;15.60;78.40
21298;DHT22;10808;48.010;11.326;2023-04-07T14:04:54;15.60;80.10
21298;DHT22;10808;48.010;11.326;2023-04-07T14:07:20;15.60;77.80
21298;DHT22;10808;48.010;11.326;2023-04-07T14:09:48;15.40;78.20
21298;DHT22;10808;48.010;11.326;2023-04-07T14:12:14;15.40;78.80
21298;DHT22;10808;48.010;11.326;2023-04-07T14:14:40;15.30;77.80
21298;DHT22;10808;48.010;11.326;2023-04-07T14:17:06;15.10;78.70
21298;DHT22;10808;48.010;11.326;2023-04-07T14:19:32;15.10;80.80
21298;DHT22;10808;48.010;11.326;2023-04-07T14:21:58;15.20;81.30
21298;DHT22;10808;48.010;11.326;2023-04-07T14:24:24;15.30;80.50
21298;DHT22;10808;48.010;11.326;2023-04-07T14:26:50;15.30;80.60
21298;DHT22;10808;48.010;11.326;2023-04-07T14:29:19;15.30;81.50
21298;DHT22;10808;48.010;11.326;2023-04-07T14:31:45;15.40;80.50
21298;DHT22;10808;48.010;11.326;2023-04-07T14:34:13;15.20;78.90
21298;DHT22;10808;48.010;11.326;2023-04-07T14:36:39;14.80;80.20
21298;DHT22;10808;48.010;11.326;2023-04-07T14:39:05;14.70;81.30
21298;DHT22;10808;48.010;11.326;2023-04-07T14:41:31;14.50;81.10
21298;DHT22;10808;48.010;11.326;2023-04-07T14:43:57;14.40;81.70
21298;DHT22;10808;48.010;11.326;2023-04-07T14:46:24;14.40;81.90
21298;DHT22;10808;48.010;11.326;2023-04-07T14:48:53;14.40;82.70
21298;DHT22;10808;48.010;11.326;2023-04-07T14:51:20;14.40;82.70
21298;DHT22;10808;48.010;11.326;2023-04-07T14:53:46;14.30;82.20
21298;DHT22;10808;48.010;11.326;2023-04-07T14:56:18;14.30;83.30
21298;DHT22;10808;48.010;11.326;2023-04-07T14:58:44;14.30;82.60
21298;DHT22;10808;48.010;11.326;2023-04-07T15:01:10;14.30;82.90
21298;DHT22;10808;48.010;11.326;2023-04-07T15:03:36;14.20;82.00
21298;DHT22;10808;48.010;11.326;2023-04-07T15:06:07;14.20;83.10
21298;DHT22;10808;48.010;11.326;2023-04-07T15:08:33;14.10;82.50
21298;DHT22;10808;48.010;11.326;2023-04-07T15:10:59;14.00;83.40
21298;DHT22;10808;48.010;11.326;2023-04-07T15:13:25;14.10;84.50
21298;DHT22;10808;48.010;11.326;2023-04-07T15:15:51;14.00;83.40
21298;DHT22;10808;48.010;11.326;2023-04-07T15:18:17;14.00;84.10
21298;DHT22;10808;48.010;11.326;2023-04-07T15:20:43;14.10;85.20
21298;DHT22;10808;48.010;11.326;2023-04-07T15:23:09;14.30;84.30
21298;DHT22;10808;48.010;11.326;2023-04-07T15:25:35;14.40;84.50
21298;DHT22;10808;48.010;11.326;2023-04-07T15:28:01;14.40;83.80
21298;DHT22;10808;48.010;11.326;2023-04-07T15:30:27;14.30;82.80
21298;DHT22;10808;48.010;11.326;2023-04-07T15:33:02;14.10;84.50
21298;DHT22;10808;48.010;11.326;2023-04-07T15:35:29;14.10;85.20
21298;DHT22;10808;48.010;11.326;2023-04-07T15:37:55;14.10;84.80
21298;DHT22;10808;48.010;11.326;2023-04-07T15:40:21;14.10;85.50
21298;DHT22;10808;48.010;11.326;2023-04-07T15:42:47;14.10;84.50
21298;DHT22;10808;48.010;11.326;2023-04-07T15:45:13;14.00;85.20
21298;DHT22;10808;48.010;11.326;2023-04-07T15:47:39;14.00;85.70
21298;DHT22;10808;48.010;11.326;2023-04-07T15:50:06;14.00;87.00
21298;DHT22;10808;48.010;11.326;2023-04-07T15:52:32;14.00;86.20
21298;DHT22;10808;48.010;11.326;2023-04-07T15:54:58;14.00;85.20
21298;DHT22;10808;48.010;11.326;2023-04-07T15:57:24;13.90;85.50
21298;DHT22;10808;48.010;11.326;2023-04-07T15:59:50;13.90;85.30
21298;DHT22;10808;48.010;11.326;2023-04-07T16:02:17;13.90;86.00
21298;DHT22;10808;48.010;11.326;2023-04-07T16:04:43;13.80;86.10